sensor_id;sensor_type;location;lat;lon;timestamp;pressure;altitude;pressure_sealevel;temperature;humidity
64076;BME280;50327;51.328;12.324;2023-03-14T00:00:40;52844.19;;;-144.47;100.00
64076;BME280;50327;51.328;12.324;2023-03-14T00:03:05;52844.19;;;-144.47;100.00
64076;BME280;50327;51.328;12.324;2023-03-14T00:05:30;52885.88;;;-144.47;100.00
64076;BME280;50327;51.328;12.324;2023-03-14T00:07:56;52907.72;;;-144.47;100.00
64076;BME280;50327;51.328;12.324;2023-03-14T00:10:21;52866.03;;;-144.47;100.00
64076;BME280;50327;51.328;12.324;2023-03-14T00:12:46;52868.00;;;-144.47;100.00
64076;BME280;50327;51.328;12.324;2023-03-14T00:15:12;52873.97;;;-144.47;100.00
64076;BME280;50327;51.328;12.324;2023-03-14T00:17:38;52891.84;;;-144.47;100.00
64076;BME280;50327;51.328;12.324;2023-03-14T00:20:06;52871.97;;;-144.47;100.00
64076;BME280;50327;51.328;12.324;2023-03-14T00:22:40;52868.00;;;-144.47;100.00
64076;BME280;50327;51.328;12.324;2023-03-14T00:25:07;52901.78;;;-144.47;100.00
64076;BME280;50327;51.328;12.324;2023-03-14T00:27:33;52887.88;;;-144.47;100.00
64076;BME280;50327;51.328;12.324;2023-03-14T00:29:58;52868.00;;;-144.47;100.00
64076;BME280;50327;51.328;12.324;2023-03-14T00:32:24;52893.81;;;-144.47;100.00
64076;BME280;50327;51.328;12.324;2023-03-14T00:34:49;52850.13;;;-144.47;100.00
64076;BME280;50327;51.328;12.324;2023-03-14T00:37:15;52870.00;;;-144.47;100.00
64076;BME280;50327;51.328;12.324;2023-03-14T00:39:40;52846.16;;;-144.47;100.00
64076;BME280;50327;51.328;12.324;2023-03-14T00:42:06;52891.84;;;-144.47;100.00
64076;BME280;50327;51.328;12.324;2023-03-14T00:44:31;52883.91;;;-144.47;100.00
64076;BME280;50327;51.328;12.324;2023-03-14T00:46:57;52870.00;;;-144.47;100.00
64076;BME280;50327;51.328;12.324;2023-03-14T00:49:22;52897.81;;;-144.47;100.00
64076;BME280;50327;51.328;12.324;2023-03-14T00:51:48;52901.78;;;-144.47;100.00
64076;BME280;50327;51.328;12.324;2023-03-14T00:54:13;52885.88;;;-144.47;100.00
64076;BME280;50327;51.328;12.324;2023-03-14T00:56:39;52895.81;;;-144.47;100.00
64076;BME280;50327;51.328;12.324;2023-03-14T00:59:04;52891.84;;;-144.47;100.00
64076;BME280;50327;51.328;12.324;2023-03-14T01:01:29;52871.97;;;-144.47;100.00
64076;BME280;50327;51.328;12.324;2023-03-14T01:03:55;52881.91;;;-144.47;100.00
64076;BME280;50327;51.328;12.324;2023-03-14T01:06:24;52864.03;;;-144.47;100.00
64076;BME280;50327;51.328;12.324;2023-03-14T01:08:50;52844.19;;;-144.47;100.00
64076;BME280;50327;51.328;12.324;2023-03-14T01:11:25;52879.94;;;-144.47;100.00
64076;BME280;50327;51.328;12.324;2023-03-14T01:13:51;52864.03;;;-144.47;100.00
64076;BME280;50327;51.328;12.324;2023-03-14T01:16:18;52852.13;;;-144.47;100.00
64076;BME280;50327;51.328;12.324;2023-03-14T01:18:45;52856.09;;;-144.47;99.42
64076;BME280;50327;51.328;12.324;2023-03-14T01:21:26;52860.06;;;-144.47;99.09
64076;BME280;50327;51.328;12.324;2023-03-14T01:23:54;52850.13;;;-144.47;98.71
64076;BME280;50327;51.328;12.324;2023-03-14T01:26:22;52848.16;;;-144.47;98.43
64076;BME280;50327;51.328;12.324;2023-03-14T01:28:49;52854.09;;;-144.47;98.41
64076;BME280;50327;51.328;12.324;2023-03-14T01:31:16;52858.06;;;-144.47;98.61
64076;BME280;50327;51.328;12.324;2023-03-14T01:33:41;52846.16;;;-144.47;96.99
64076;BME280;50327;51.328;12.324;2023-03-14T01:36:08;52848.16;;;-144.47;96.42
64076;BME280;50327;51.328;12.324;2023-03-14T01:38:36;52854.09;;;-144.47;95.70
64076;BME280;50327;51.328;12.324;2023-03-14T01:41:02;52860.06;;;-144.47;96.27
64076;BME280;50327;51.328;12.324;2023-03-14T01:43:28;52852.13;;;-144.47;96.79
64076;BME280;50327;51.328;12.324;2023-03-14T01:48:25;52852.13;;;-144.47;96.44
64076;BME280;50327;51.328;12.324;2023-03-14T01:50:50;52856.09;;;-144.47;96.79
64076;BME280;50327;51.328;12.324;2023-03-14T01:53:16;52840.19;;;-144.47;97.18
64076;BME280;50327;51.328;12.324;2023-03-14T01:55:47;52875.94;;;-144.47;97.41
64076;BME280;50327;51.328;12.324;2023-03-14T01:58:14;52852.13;;;-144.47;96.96
64076;BME280;50327;51.328;12.324;2023-03-14T02:00:41;52883.91;;;-144.47;96.75
64076;BME280;50327;51.328;12.324;2023-03-14T02:03:11;52860.06;;;-144.47;96.54
64076;BME280;50327;51.328;12.324;2023-03-14T02:05:40;52875.94;;;-144.47;96.42
64076;BME280;50327;51.328;12.324;2023-03-14T02:08:09;52868.00;;;-144.47;96.57
64076;BME280;50327;51.328;12.324;2023-03-14T02:10:37;52850.13;;;-144.47;96.60
64076;BME280;50327;51.328;12.324;2023-03-14T02:13:04;52854.09;;;-144.47;96.57
64076;BME280;50327;51.328;12.324;2023-03-14T02:15:31;52868.00;;;-144.47;96.28
64076;BME280;50327;51.328;12.324;2023-03-14T02:17:58;52889.84;;;-144.47;96.39
64076;BME280;50327;51.328;12.324;2023-03-14T02:22:55;52850.13;;;-144.47;95.84
64076;BME280;50327;51.328;12.324;2023-03-14T02:27:53;52866.03;;;-144.47;95.42
64076;BME280;50327;51.328;12.324;2023-03-14T02:30:25;52860.06;;;-144.47;95.43
64076;BME280;50327;51.328;12.324;2023-03-14T02:32:55;52866.03;;;-144.47;95.40
64076;BME280;50327;51.328;12.324;2023-03-14T02:35:25;52852.13;;;-144.47;95.09
64076;BME280;50327;51.328;12.324;2023-03-14T02:37:53;52879.94;;;-144.47;94.83
64076;BME280;50327;51.328;12.324;2023-03-14T02:40:20;52873.97;;;-144.47;95.02
64076;BME280;50327;51.328;12.324;2023-03-14T02:42:46;52834.25;;;-144.47;94.88
64076;BME280;50327;51.328;12.324;2023-03-14T02:47:39;52866.03;;;-144.47;94.83
64076;BME280;50327;51.328;12.324;2023-03-14T02:50:18;52846.16;;;-144.47;94.86
64076;BME280;50327;51.328;12.324;2023-03-14T02:52:46;52895.81;;;-144.47;94.57
64076;BME280;50327;51.328;12.324;2023-03-14T02:55:11;52844.19;;;-144.47;94.46
64076;BME280;50327;51.328;12.324;2023-03-14T02:57:36;52844.19;;;-144.47;94.45
64076;BME280;50327;51.328;12.324;2023-03-14T03:00:03;52866.03;;;-144.47;94.49
64076;BME280;50327;51.328;12.324;2023-03-14T03:02:32;52852.13;;;-144.47;94.60
64076;BME280;50327;51.328;12.324;2023-03-14T03:04:57;52871.97;;;-144.47;94.37
64076;BME280;50327;51.328;12.324;2023-03-14T03:07:24;52873.97;;;-144.47;94.00
64076;BME280;50327;51.328;12.324;2023-03-14T03:09:49;52834.25;;;-144.47;93.89
64076;BME280;50327;51.328;12.324;2023-03-14T03:12:15;52858.06;;;-144.47;93.55
64076;BME280;50327;51.328;12.324;2023-03-14T03:14:40;52860.06;;;-144.47;93.54
64076;BME280;50327;51.328;12.324;2023-03-14T03:17:06;52877.94;;;-144.47;93.32
64076;BME280;50327;51.328;12.324;2023-03-14T03:19:32;52870.00;;;-144.47;91.66
64076;BME280;50327;51.328;12.324;2023-03-14T03:21:58;52852.13;;;-144.47;90.94
64076;BME280;50327;51.328;12.324;2023-03-14T03:24:24;52854.09;;;-144.47;89.15
64076;BME280;50327;51.328;12.324;2023-03-14T03:26:50;52854.09;;;-144.47;87.09
64076;BME280;50327;51.328;12.324;2023-03-14T03:29:15;52862.06;;;-144.47;85.26
64076;BME280;50327;51.328;12.324;2023-03-14T03:31:41;52852.13;;;-144.47;84.88
64076;BME280;50327;51.328;12.324;2023-03-14T03:34:06;52858.06;;;-144.47;84.88
64076;BME280;50327;51.328;12.324;2023-03-14T03:36:32;52868.00;;;-144.47;84.53
64076;BME280;50327;51.328;12.324;2023-03-14T03:39:00;52873.97;;;-144.47;84.66
64076;BME280;50327;51.328;12.324;2023-03-14T03:41:25;52870.00;;;-144.47;84.24
64076;BME280;50327;51.328;12.324;2023-03-14T03:43:51;52860.06;;;-144.47;84.58
64076;BME280;50327;51.328;12.324;2023-03-14T03:46:16;52846.16;;;-144.47;84.00
64076;BME280;50327;51.328;12.324;2023-03-14T03:48:41;52860.06;;;-144.47;83.91
64076;BME280;50327;51.328;12.324;2023-03-14T03:51:14;52854.09;;;-144.47;83.40
64076;BME280;50327;51.328;12.324;2023-03-14T03:53:41;52864.03;;;-144.47;82.98
64076;BME280;50327;51.328;12.324;2023-03-14T03:56:07;52836.22;;;-144.47;83.26
64076;BME280;50327;51.328;12.324;2023-03-14T03:58:32;52864.03;;;-144.47;83.46
64076;BME280;50327;51.328;12.324;2023-03-14T04:00:58;52836.22;;;-144.47;83.72
64076;BME280;50327;51.328;12.324;2023-03-14T04:03:44;52877.94;;;-144.47;84.38
64076;BME280;50327;51.328;12.324;2023-03-14T04:06:11;52852.13;;;-144.47;84.37
64076;BME280;50327;51.328;12.324;2023-03-14T04:08:37;52858.06;;;-144.47;84.31
64076;BME280;50327;51.328;12.324;2023-03-14T04:11:03;52864.03;;;-144.47;84.76
64076;BME280;50327;51.328;12.324;2023-03-14T04:13:29;52879.94;;;-144.47;85.18
64076;BME280;50327;51.328;12.324;2023-03-14T04:15:55;52854.09;;;-144.47;85.41
64076;BME280;50327;51.328;12.324;2023-03-14T04:18:21;52883.91;;;-144.47;85.04
64076;BME280;50327;51.328;12.324;2023-03-14T04:20:52;52866.03;;;-144.47;85.48
64076;BME280;50327;51.328;12.324;2023-03-14T04:23:22;52832.25;;;-144.47;85.85
64076;BME280;50327;51.328;12.324;2023-03-14T04:25:51;52844.19;;;-144.47;86.25
64076;BME280;50327;51.328;12.324;2023-03-14T04:28:16;52887.88;;;-144.47;87.12
64076;BME280;50327;51.328;12.324;2023-03-14T04:30:42;52862.06;;;-144.47;87.62
64076;BME280;50327;51.328;12.324;2023-03-14T04:33:07;52832.25;;;-144.47;87.84
64076;BME280;50327;51.328;12.324;2023-03-14T04:35:33;52875.94;;;-144.47;87.96
64076;BME280;50327;51.328;12.324;2023-03-14T04:37:58;52852.13;;;-144.47;88.61
64076;BME280;50327;51.328;12.324;2023-03-14T04:40:27;52879.94;;;-144.47;88.88
64076;BME280;50327;51.328;12.324;2023-03-14T04:42:53;52862.06;;;-144.47;88.84
64076;BME280;50327;51.328;12.324;2023-03-14T04:45:18;52868.00;;;-144.47;88.94
64076;BME280;50327;51.328;12.324;2023-03-14T04:47:44;52875.94;;;-144.47;89.16
64076;BME280;50327;51.328;12.324;2023-03-14T04:50:10;52858.06;;;-144.47;88.91
64076;BME280;50327;51.328;12.324;2023-03-14T04:52:36;52846.16;;;-144.47;87.62
64076;BME280;50327;51.328;12.324;2023-03-14T04:55:01;52860.06;;;-144.47;86.54
64076;BME280;50327;51.328;12.324;2023-03-14T04:57:29;52860.06;;;-144.47;86.17
64076;BME280;50327;51.328;12.324;2023-03-14T04:59:54;52858.06;;;-144.47;85.75
64076;BME280;50327;51.328;12.324;2023-03-14T05:02:20;52832.25;;;-144.47;85.13
64076;BME280;50327;51.328;12.324;2023-03-14T05:04:45;52852.13;;;-144.47;85.10
64076;BME280;50327;51.328;12.324;2023-03-14T05:07:10;52871.97;;;-144.47;85.23
64076;BME280;50327;51.328;12.324;2023-03-14T05:09:36;52854.09;;;-144.47;84.88
64076;BME280;50327;51.328;12.324;2023-03-14T05:12:01;52850.13;;;-144.47;85.18
64076;BME280;50327;51.328;12.324;2023-03-14T05:14:27;52864.03;;;-144.47;85.45
64076;BME280;50327;51.328;12.324;2023-03-14T05:16:52;52846.16;;;-144.47;85.27
64076;BME280;50327;51.328;12.324;2023-03-14T05:19:17;52868.00;;;-144.47;85.98
64076;BME280;50327;51.328;12.324;2023-03-14T05:21:43;52850.13;;;-144.47;86.13
64076;BME280;50327;51.328;12.324;2023-03-14T05:24:08;52860.06;;;-144.47;86.29
64076;BME280;50327;51.328;12.324;2023-03-14T05:26:34;52854.09;;;-144.47;86.34
64076;BME280;50327;51.328;12.324;2023-03-14T05:28:59;52856.09;;;-144.47;86.81
64076;BME280;50327;51.328;12.324;2023-03-14T05:31:25;52844.19;;;-144.47;87.09
64076;BME280;50327;51.328;12.324;2023-03-14T05:33:50;52868.00;;;-144.47;86.98
64076;BME280;50327;51.328;12.324;2023-03-14T05:36:16;52860.06;;;-144.47;87.41
64076;BME280;50327;51.328;12.324;2023-03-14T05:38:41;52870.00;;;-144.47;87.17
64076;BME280;50327;51.328;12.324;2023-03-14T05:41:06;52871.97;;;-144.47;86.82
64076;BME280;50327;51.328;12.324;2023-03-14T05:43:32;52889.84;;;-144.47;86.48
64076;BME280;50327;51.328;12.324;2023-03-14T05:45:57;52850.13;;;-144.47;86.75
64076;BME280;50327;51.328;12.324;2023-03-14T05:48:23;52881.91;;;-144.47;87.03
64076;BME280;50327;51.328;12.324;2023-03-14T05:50:57;52868.00;;;-144.47;87.19
64076;BME280;50327;51.328;12.324;2023-03-14T05:53:22;52842.19;;;-144.47;87.30
64076;BME280;50327;51.328;12.324;2023-03-14T05:55:51;52881.91;;;-144.47;87.58
64076;BME280;50327;51.328;12.324;2023-03-14T05:58:16;52891.84;;;-144.47;88.11
64076;BME280;50327;51.328;12.324;2023-03-14T06:00:42;52866.03;;;-144.47;87.78
64076;BME280;50327;51.328;12.324;2023-03-14T06:03:07;52881.91;;;-144.47;86.70
64076;BME280;50327;51.328;12.324;2023-03-14T06:05:32;52899.78;;;-144.47;86.33
64076;BME280;50327;51.328;12.324;2023-03-14T06:07:58;52877.94;;;-144.47;86.42
64076;BME280;50327;51.328;12.324;2023-03-14T06:10:23;52856.09;;;-144.47;85.43
64076;BME280;50327;51.328;12.324;2023-03-14T06:12:49;52871.97;;;-144.47;85.43
64076;BME280;50327;51.328;12.324;2023-03-14T06:15:14;52891.84;;;-144.47;84.08
64076;BME280;50327;51.328;12.324;2023-03-14T06:17:39;52868.00;;;-144.47;84.39
64076;BME280;50327;51.328;12.324;2023-03-14T06:20:05;52852.13;;;-144.47;84.60
64076;BME280;50327;51.328;12.324;2023-03-14T06:22:31;52864.03;;;-144.47;84.38
64076;BME280;50327;51.328;12.324;2023-03-14T06:24:56;52850.13;;;-144.47;84.72
64076;BME280;50327;51.328;12.324;2023-03-14T06:27:21;52883.91;;;-144.47;84.41
64076;BME280;50327;51.328;12.324;2023-03-14T06:29:47;52875.94;;;-144.47;84.81
64076;BME280;50327;51.328;12.324;2023-03-14T06:32:12;52852.13;;;-144.47;84.68
64076;BME280;50327;51.328;12.324;2023-03-14T06:34:37;52860.06;;;-144.47;85.30
64076;BME280;50327;51.328;12.324;2023-03-14T06:37:03;52887.88;;;-144.47;85.29
64076;BME280;50327;51.328;12.324;2023-03-14T06:39:29;52834.25;;;-144.47;85.47
64076;BME280;50327;51.328;12.324;2023-03-14T06:41:54;52844.19;;;-144.47;85.05
64076;BME280;50327;51.328;12.324;2023-03-14T06:44:19;52877.94;;;-144.47;85.32
64076;BME280;50327;51.328;12.324;2023-03-14T06:46:45;52840.19;;;-144.47;84.99
64076;BME280;50327;51.328;12.324;2023-03-14T06:49:10;52875.94;;;-144.47;85.40
64076;BME280;50327;51.328;12.324;2023-03-14T06:51:36;52830.28;;;-144.47;84.57
64076;BME280;50327;51.328;12.324;2023-03-14T06:54:01;52864.03;;;-144.47;84.62
64076;BME280;50327;51.328;12.324;2023-03-14T06:56:26;52877.94;;;-144.47;84.45
64076;BME280;50327;51.328;12.324;2023-03-14T06:58:52;52864.03;;;-144.47;84.30
64076;BME280;50327;51.328;12.324;2023-03-14T07:01:24;52852.13;;;-144.47;83.66
64076;BME280;50327;51.328;12.324;2023-03-14T07:03:50;52881.91;;;-144.47;82.79
64076;BME280;50327;51.328;12.324;2023-03-14T07:06:16;52864.03;;;-144.47;83.19
64076;BME280;50327;51.328;12.324;2023-03-14T07:08:41;52840.19;;;-144.47;82.54
64076;BME280;50327;51.328;12.324;2023-03-14T07:11:07;52846.16;;;-144.47;81.66
64076;BME280;50327;51.328;12.324;2023-03-14T07:13:33;52862.06;;;-144.47;81.20
64076;BME280;50327;51.328;12.324;2023-03-14T07:15:58;52866.03;;;-144.47;80.79
64076;BME280;50327;51.328;12.324;2023-03-14T07:18:23;52868.00;;;-144.47;80.22
64076;BME280;50327;51.328;12.324;2023-03-14T07:20:49;52848.16;;;-144.47;78.62
64076;BME280;50327;51.328;12.324;2023-03-14T07:23:14;52828.28;;;-144.47;78.74
64076;BME280;50327;51.328;12.324;2023-03-14T07:25:40;52866.03;;;-144.47;78.01
64076;BME280;50327;51.328;12.324;2023-03-14T07:28:06;52828.28;;;-144.47;78.12
64076;BME280;50327;51.328;12.324;2023-03-14T07:30:31;52858.06;;;-144.47;77.42
64076;BME280;50327;51.328;12.324;2023-03-14T07:32:56;52822.31;;;-144.47;77.59
64076;BME280;50327;51.328;12.324;2023-03-14T07:35:22;52854.09;;;-144.47;76.77
64076;BME280;50327;51.328;12.324;2023-03-14T07:37:47;52868.00;;;-144.47;76.50
64076;BME280;50327;51.328;12.324;2023-03-14T07:40:12;52836.22;;;-144.47;76.10
64076;BME280;50327;51.328;12.324;2023-03-14T07:42:41;52818.34;;;-144.47;76.48
64076;BME280;50327;51.328;12.324;2023-03-14T07:45:08;52822.31;;;-144.47;76.46
64076;BME280;50327;51.328;12.324;2023-03-14T07:47:34;52848.16;;;-144.47;76.42
64076;BME280;50327;51.328;12.324;2023-03-14T07:50:00;52828.28;;;-144.47;76.94
64076;BME280;50327;51.328;12.324;2023-03-14T07:52:25;52840.19;;;-144.47;77.52
64076;BME280;50327;51.328;12.324;2023-03-14T07:54:51;52846.16;;;-144.47;77.90
64076;BME280;50327;51.328;12.324;2023-03-14T07:57:16;52836.22;;;-144.47;77.52
64076;BME280;50327;51.328;12.324;2023-03-14T07:59:42;52842.19;;;-144.47;77.51
64076;BME280;50327;51.328;12.324;2023-03-14T08:02:10;52848.16;;;-144.47;77.02
64076;BME280;50327;51.328;12.324;2023-03-14T08:04:37;52834.25;;;-144.47;77.40
64076;BME280;50327;51.328;12.324;2023-03-14T08:07:03;52856.09;;;-144.47;77.57
64076;BME280;50327;51.328;12.324;2023-03-14T08:09:28;52838.22;;;-144.47;76.98
64076;BME280;50327;51.328;12.324;2023-03-14T08:11:54;52818.34;;;-144.47;77.03
64076;BME280;50327;51.328;12.324;2023-03-14T08:14:19;52842.19;;;-144.47;76.88
64076;BME280;50327;51.328;12.324;2023-03-14T08:16:45;52832.25;;;-144.47;76.59
64076;BME280;50327;51.328;12.324;2023-03-14T08:19:10;52840.19;;;-144.47;75.50
64076;BME280;50327;51.328;12.324;2023-03-14T08:21:36;52808.44;;;-144.47;74.67
64076;BME280;50327;51.328;12.324;2023-03-14T08:24:01;52834.25;;;-144.47;74.42
64076;BME280;50327;51.328;12.324;2023-03-14T08:26:27;52828.28;;;-144.47;74.29
64076;BME280;50327;51.328;12.324;2023-03-14T08:28:52;52854.09;;;-144.47;72.67
64076;BME280;50327;51.328;12.324;2023-03-14T08:31:17;52854.09;;;-144.47;71.98
64076;BME280;50327;51.328;12.324;2023-03-14T08:33:43;52822.31;;;-144.47;71.51
64076;BME280;50327;51.328;12.324;2023-03-14T08:36:09;52840.19;;;-144.47;71.12
64076;BME280;50327;51.328;12.324;2023-03-14T08:38:34;52818.34;;;-144.47;70.55
64076;BME280;50327;51.328;12.324;2023-03-14T08:41:01;52816.38;;;-144.47;70.69
64076;BME280;50327;51.328;12.324;2023-03-14T08:43:28;52824.31;;;-144.47;70.75
64076;BME280;50327;51.328;12.324;2023-03-14T08:45:56;52808.44;;;-144.47;70.33
64076;BME280;50327;51.328;12.324;2023-03-14T08:48:22;52810.41;;;-144.47;69.71
64076;BME280;50327;51.328;12.324;2023-03-14T08:50:47;52820.34;;;-144.47;69.30
64076;BME280;50327;51.328;12.324;2023-03-14T08:53:13;52828.28;;;-144.47;68.16
64076;BME280;50327;51.328;12.324;2023-03-14T08:55:38;52828.28;;;-144.47;68.40
64076;BME280;50327;51.328;12.324;2023-03-14T08:58:04;52814.38;;;-144.47;68.74
64076;BME280;50327;51.328;12.324;2023-03-14T09:00:32;52816.38;;;-144.47;68.39
64076;BME280;50327;51.328;12.324;2023-03-14T09:02:57;52806.44;;;-144.47;68.43
64076;BME280;50327;51.328;12.324;2023-03-14T09:05:23;52828.28;;;-144.47;68.25
64076;BME280;50327;51.328;12.324;2023-03-14T09:07:48;52800.47;;;-144.47;67.25
64076;BME280;50327;51.328;12.324;2023-03-14T09:10:14;52808.44;;;-144.47;68.17
64076;BME280;50327;51.328;12.324;2023-03-14T09:12:39;52814.38;;;-144.47;68.50
64076;BME280;50327;51.328;12.324;2023-03-14T09:15:05;52820.34;;;-144.47;68.33
64076;BME280;50327;51.328;12.324;2023-03-14T09:17:31;52794.53;;;-144.47;67.46
64076;BME280;50327;51.328;12.324;2023-03-14T09:19:56;52822.31;;;-144.47;67.85
64076;BME280;50327;51.328;12.324;2023-03-14T09:22:22;52812.41;;;-144.47;68.47
64076;BME280;50327;51.328;12.324;2023-03-14T09:24:47;52808.44;;;-144.47;67.65
64076;BME280;50327;51.328;12.324;2023-03-14T09:27:13;52814.38;;;-144.47;68.63
64076;BME280;50327;51.328;12.324;2023-03-14T09:29:38;52780.63;;;-144.47;68.15
64076;BME280;50327;51.328;12.324;2023-03-14T09:32:03;52806.44;;;-144.47;68.33
64076;BME280;50327;51.328;12.324;2023-03-14T09:34:29;52796.50;;;-144.47;68.38
64076;BME280;50327;51.328;12.324;2023-03-14T09:36:55;52814.38;;;-144.47;68.57
64076;BME280;50327;51.328;12.324;2023-03-14T09:39:21;52800.47;;;-144.47;68.08
64076;BME280;50327;51.328;12.324;2023-03-14T09:41:48;52808.44;;;-144.47;68.50
64076;BME280;50327;51.328;12.324;2023-03-14T09:44:22;52786.56;;;-144.47;68.21
64076;BME280;50327;51.328;12.324;2023-03-14T09:46:53;52814.38;;;-144.47;67.65
64076;BME280;50327;51.328;12.324;2023-03-14T09:49:22;52792.53;;;-144.47;67.70
64076;BME280;50327;51.328;12.324;2023-03-14T09:51:51;52790.56;;;-144.47;66.56
64076;BME280;50327;51.328;12.324;2023-03-14T09:57:02;52796.50;;;-144.47;65.39
64076;BME280;50327;51.328;12.324;2023-03-14T09:59:28;52814.38;;;-144.47;65.04
64076;BME280;50327;51.328;12.324;2023-03-14T10:01:58;52824.31;;;-144.47;65.21
64076;BME280;50327;51.328;12.324;2023-03-14T10:04:25;52834.25;;;-144.47;64.66
64076;BME280;50327;51.328;12.324;2023-03-14T10:06:52;52814.38;;;-144.47;65.13
64076;BME280;50327;51.328;12.324;2023-03-14T10:09:22;52828.28;;;-144.47;64.27
64076;BME280;50327;51.328;12.324;2023-03-14T10:11:53;52800.47;;;-144.47;64.72
64076;BME280;50327;51.328;12.324;2023-03-14T10:14:30;52816.38;;;-144.47;64.53
64076;BME280;50327;51.328;12.324;2023-03-14T10:17:11;52812.41;;;-144.47;64.89
64076;BME280;50327;51.328;12.324;2023-03-14T10:19:37;52800.47;;;-144.47;64.82
64076;BME280;50327;51.328;12.324;2023-03-14T10:22:15;52812.41;;;-144.47;64.89
64076;BME280;50327;51.328;12.324;2023-03-14T10:24:46;52812.41;;;-144.47;64.98
64076;BME280;50327;51.328;12.324;2023-03-14T10:27:20;52784.59;;;-144.47;64.60
64076;BME280;50327;51.328;12.324;2023-03-14T10:30:00;52818.34;;;-144.47;64.37
64076;BME280;50327;51.328;12.324;2023-03-14T10:32:45;52792.53;;;-144.47;64.50
64076;BME280;50327;51.328;12.324;2023-03-14T10:37:51;52800.47;;;-144.47;63.03
64076;BME280;50327;51.328;12.324;2023-03-14T10:40:19;52830.28;;;-144.47;62.96
64076;BME280;50327;51.328;12.324;2023-03-14T10:42:45;52786.56;;;-144.47;63.38
64076;BME280;50327;51.328;12.324;2023-03-14T10:47:53;52802.47;;;-144.47;63.67
64076;BME280;50327;51.328;12.324;2023-03-14T10:50:29;52780.63;;;-144.47;63.63
64076;BME280;50327;51.328;12.324;2023-03-14T10:52:56;52822.31;;;-144.47;63.74
64076;BME280;50327;51.328;12.324;2023-03-14T10:55:25;52808.44;;;-144.47;63.86
64076;BME280;50327;51.328;12.324;2023-03-14T10:57:51;52816.38;;;-144.47;63.73
64076;BME280;50327;51.328;12.324;2023-03-14T11:00:22;52818.34;;;-144.47;63.73
64076;BME280;50327;51.328;12.324;2023-03-14T11:08:01;52790.56;;;-144.47;64.30
64076;BME280;50327;51.328;12.324;2023-03-14T11:10:50;52816.38;;;-144.47;64.02
64076;BME280;50327;51.328;12.324;2023-03-14T11:13:40;52802.47;;;-144.47;64.79
64076;BME280;50327;51.328;12.324;2023-03-14T11:16:48;52798.50;;;-144.47;64.50
64076;BME280;50327;51.328;12.324;2023-03-14T11:21:59;52800.47;;;-144.47;65.39
64076;BME280;50327;51.328;12.324;2023-03-14T11:35:12;52832.25;;;-144.47;65.65
64076;BME280;50327;51.328;12.324;2023-03-14T11:37:46;52820.34;;;-144.47;66.38
64076;BME280;50327;51.328;12.324;2023-03-14T11:40:23;52810.41;;;-144.47;66.83
64076;BME280;50327;51.328;12.324;2023-03-14T11:43:04;52812.41;;;-144.47;66.49
64076;BME280;50327;51.328;12.324;2023-03-14T11:45:36;52792.53;;;-144.47;65.63
64076;BME280;50327;51.328;12.324;2023-03-14T11:48:25;52790.56;;;-144.47;65.51
64076;BME280;50327;51.328;12.324;2023-03-14T11:50:57;52834.25;;;-144.47;64.70
64076;BME280;50327;51.328;12.324;2023-03-14T11:53:28;52824.31;;;-144.47;64.25
64076;BME280;50327;51.328;12.324;2023-03-14T11:55:55;52804.44;;;-144.47;65.11
64076;BME280;50327;51.328;12.324;2023-03-14T11:58:25;52812.41;;;-144.47;65.22
64076;BME280;50327;51.328;12.324;2023-03-14T12:00:56;52826.31;;;-144.47;65.17
64076;BME280;50327;51.328;12.324;2023-03-14T12:03:39;52818.34;;;-144.47;65.47
64076;BME280;50327;51.328;12.324;2023-03-14T12:08:56;52808.44;;;-144.47;66.66
64076;BME280;50327;51.328;12.324;2023-03-14T12:11:51;52804.44;;;-144.47;66.41
64076;BME280;50327;51.328;12.324;2023-03-14T12:17:27;52796.50;;;-144.47;66.49
64076;BME280;50327;51.328;12.324;2023-03-14T12:20:03;52780.63;;;-144.47;66.18
64076;BME280;50327;51.328;12.324;2023-03-14T12:22:34;52832.25;;;-144.47;66.36
64076;BME280;50327;51.328;12.324;2023-03-14T12:25:02;52830.28;;;-144.47;73.14
64076;BME280;50327;51.328;12.324;2023-03-14T12:32:53;52820.34;;;-144.47;77.04
64076;BME280;50327;51.328;12.324;2023-03-14T12:35:37;52824.31;;;-144.47;75.48
64076;BME280;50327;51.328;12.324;2023-03-14T12:38:16;52814.38;;;-144.47;74.99
64076;BME280;50327;51.328;12.324;2023-03-14T12:43:31;52792.53;;;-144.47;73.86
64076;BME280;50327;51.328;12.324;2023-03-14T12:49:05;52818.34;;;-144.47;69.42
64076;BME280;50327;51.328;12.324;2023-03-14T12:51:42;52816.38;;;-144.47;68.16
64076;BME280;50327;51.328;12.324;2023-03-14T12:59:58;52816.38;;;-144.47;69.14
64076;BME280;50327;51.328;12.324;2023-03-14T13:02:44;52820.34;;;-144.47;68.02
64076;BME280;50327;51.328;12.324;2023-03-14T13:10:31;52820.34;;;-144.47;65.98
64076;BME280;50327;51.328;12.324;2023-03-14T13:13:21;52786.56;;;-144.47;65.71
64076;BME280;50327;51.328;12.324;2023-03-14T13:15:48;52818.34;;;-144.47;64.15
64076;BME280;50327;51.328;12.324;2023-03-14T13:18:17;52808.44;;;-144.47;63.88
64076;BME280;50327;51.328;12.324;2023-03-14T13:20:53;52796.50;;;-144.47;63.64
64076;BME280;50327;51.328;12.324;2023-03-14T13:23:31;52786.56;;;-144.47;63.35
64076;BME280;50327;51.328;12.324;2023-03-14T13:25:59;52794.53;;;-144.47;63.20
64076;BME280;50327;51.328;12.324;2023-03-14T13:28:26;52808.44;;;-144.47;62.97
64076;BME280;50327;51.328;12.324;2023-03-14T13:30:58;52796.50;;;-144.47;62.26
64076;BME280;50327;51.328;12.324;2023-03-14T13:33:24;52812.41;;;-144.47;62.13
64076;BME280;50327;51.328;12.324;2023-03-14T13:35:59;52788.56;;;-144.47;62.75